sensor_id;sensor_type;location;lat;lon;timestamp;temperature;humidity
10536;DHT22;5316;49.538;8.352;2023-03-11T00:01:40;3.10;1.00
10536;DHT22;5316;49.538;8.352;2023-03-11T00:04:08;3.10;1.00
10536;DHT22;5316;49.538;8.352;2023-03-11T00:06:43;3.10;1.00
10536;DHT22;5316;49.538;8.352;2023-03-11T00:09:15;3.00;1.00
10536;DHT22;5316;49.538;8.352;2023-03-11T00:11:50;3.00;1.00
10536;DHT22;5316;49.538;8.352;2023-03-11T00:14:31;3.00;1.00
10536;DHT22;5316;49.538;8.352;2023-03-11T00:16:59;3.00;1.00
10536;DHT22;5316;49.538;8.352;2023-03-11T00:19:32;3.00;1.00
10536;DHT22;5316;49.538;8.352;2023-03-11T00:22:09;3.00;1.00
10536;DHT22;5316;49.538;8.352;2023-03-11T00:24:37;3.00;1.00
10536;DHT22;5316;49.538;8.352;2023-03-11T00:27:09;3.00;99.90
10536;DHT22;5316;49.538;8.352;2023-03-11T00:29:42;2.90;99.90
10536;DHT22;5316;49.538;8.352;2023-03-11T00:32:12;2.90;1.00
10536;DHT22;5316;49.538;8.352;2023-03-11T00:34:39;3.00;99.90
10536;DHT22;5316;49.538;8.352;2023-03-11T00:37:07;3.00;1.00
10536;DHT22;5316;49.538;8.352;2023-03-11T00:39:34;3.00;1.00
10536;DHT22;5316;49.538;8.352;2023-03-11T00:42:01;3.00;1.00
10536;DHT22;5316;49.538;8.352;2023-03-11T00:44:28;2.90;24.40
10536;DHT22;5316;49.538;8.352;2023-03-11T00:47:12;2.90;99.90
10536;DHT22;5316;49.538;8.352;2023-03-11T00:49:40;2.90;99.90
10536;DHT22;5316;49.538;8.352;2023-03-11T00:52:10;2.90;99.90
10536;DHT22;5316;49.538;8.352;2023-03-11T00:54:37;2.90;1.00
10536;DHT22;5316;49.538;8.352;2023-03-11T00:57:06;2.90;1.00
10536;DHT22;5316;49.538;8.352;2023-03-11T00:59:35;2.90;1.00
10536;DHT22;5316;49.538;8.352;2023-03-11T01:02:02;2.90;1.00
10536;DHT22;5316;49.538;8.352;2023-03-11T01:04:34;2.80;1.00
10536;DHT22;5316;49.538;8.352;2023-03-11T01:07:03;2.80;99.90
10536;DHT22;5316;49.538;8.352;2023-03-11T01:09:31;2.80;1.00
10536;DHT22;5316;49.538;8.352;2023-03-11T01:11:58;2.80;1.00
10536;DHT22;5316;49.538;8.352;2023-03-11T01:14:25;2.90;99.90
10536;DHT22;5316;49.538;8.352;2023-03-11T01:16:52;2.80;99.90
10536;DHT22;5316;49.538;8.352;2023-03-11T01:19:20;2.80;1.00
10536;DHT22;5316;49.538;8.352;2023-03-11T01:21:49;2.80;99.90
10536;DHT22;5316;49.538;8.352;2023-03-11T01:24:17;2.80;1.00
10536;DHT22;5316;49.538;8.352;2023-03-11T01:26:49;2.70;1.00
10536;DHT22;5316;49.538;8.352;2023-03-11T01:29:18;2.70;1.00
10536;DHT22;5316;49.538;8.352;2023-03-11T01:31:45;2.70;1.00
10536;DHT22;5316;49.538;8.352;2023-03-11T01:34:12;2.70;1.00
10536;DHT22;5316;49.538;8.352;2023-03-11T01:36:39;2.70;1.00
10536;DHT22;5316;49.538;8.352;2023-03-11T01:39:08;2.60;1.00
10536;DHT22;5316;49.538;8.352;2023-03-11T01:41:36;2.60;87.70
10536;DHT22;5316;49.538;8.352;2023-03-11T01:44:04;2.50;99.90
10536;DHT22;5316;49.538;8.352;2023-03-11T01:46:36;2.50;99.90
10536;DHT22;5316;49.538;8.352;2023-03-11T01:49:12;2.50;99.90
10536;DHT22;5316;49.538;8.352;2023-03-11T01:51:43;2.50;99.90
10536;DHT22;5316;49.538;8.352;2023-03-11T01:54:17;2.50;99.90
10536;DHT22;5316;49.538;8.352;2023-03-11T01:56:48;2.50;99.90
10536;DHT22;5316;49.538;8.352;2023-03-11T01:59:20;2.50;99.90
10536;DHT22;5316;49.538;8.352;2023-03-11T02:01:51;2.50;99.90
10536;DHT22;5316;49.538;8.352;2023-03-11T02:04:21;2.60;99.90
10536;DHT22;5316;49.538;8.352;2023-03-11T02:06:48;2.60;1.00
10536;DHT22;5316;49.538;8.352;2023-03-11T02:09:17;2.60;1.00
10536;DHT22;5316;49.538;8.352;2023-03-11T02:11:45;2.60;1.00
10536;DHT22;5316;49.538;8.352;2023-03-11T02:14:14;2.50;1.00
10536;DHT22;5316;49.538;8.352;2023-03-11T02:16:43;2.50;77.30
10536;DHT22;5316;49.538;8.352;2023-03-11T02:19:17;2.50;99.90
10536;DHT22;5316;49.538;8.352;2023-03-11T02:21:49;2.50;99.90
10536;DHT22;5316;49.538;8.352;2023-03-11T02:24:23;2.40;99.90
10536;DHT22;5316;49.538;8.352;2023-03-11T02:26:57;2.50;99.90
10536;DHT22;5316;49.538;8.352;2023-03-11T02:29:27;2.50;99.90
10536;DHT22;5316;49.538;8.352;2023-03-11T02:32:44;2.50;99.90
10536;DHT22;5316;49.538;8.352;2023-03-11T03:50:16;1.90;1.00
10536;DHT22;5316;49.538;8.352;2023-03-11T04:04:54;1.70;99.90
10536;DHT22;5316;49.538;8.352;2023-03-11T04:18:49;1.70;1.00
10536;DHT22;5316;49.538;8.352;2023-03-11T04:53:49;1.70;99.90
10536;DHT22;5316;49.538;8.352;2023-03-11T04:57:08;1.70;99.90
10536;DHT22;5316;49.538;8.352;2023-03-11T05:00:27;1.70;99.90
10536;DHT22;5316;49.538;8.352;2023-03-11T06:41:15;1.30;1.00
10536;DHT22;5316;49.538;8.352;2023-03-11T07:14:29;1.80;52.00
10536;DHT22;5316;49.538;8.352;2023-03-11T08:07:47;2.70;1.00
10536;DHT22;5316;49.538;8.352;2023-03-11T08:10:14;2.80;1.00
10536;DHT22;5316;49.538;8.352;2023-03-11T08:12:42;2.90;99.90
10536;DHT22;5316;49.538;8.352;2023-03-11T08:15:11;2.90;99.90
10536;DHT22;5316;49.538;8.352;2023-03-11T08:17:38;3.10;99.90
10536;DHT22;5316;49.538;8.352;2023-03-11T08:20:07;3.10;1.00
10536;DHT22;5316;49.538;8.352;2023-03-11T08:22:35;3.20;99.90
10536;DHT22;5316;49.538;8.352;2023-03-11T08:25:04;3.20;99.90
10536;DHT22;5316;49.538;8.352;2023-03-11T08:27:35;3.20;99.90
10536;DHT22;5316;49.538;8.352;2023-03-11T08:30:04;3.20;1.00
10536;DHT22;5316;49.538;8.352;2023-03-11T08:32:35;3.30;1.00
10536;DHT22;5316;49.538;8.352;2023-03-11T08:35:03;3.30;1.00
10536;DHT22;5316;49.538;8.352;2023-03-11T08:37:32;3.30;1.00
10536;DHT22;5316;49.538;8.352;2023-03-11T08:40:03;3.30;1.00
10536;DHT22;5316;49.538;8.352;2023-03-11T08:42:30;3.40;1.00
10536;DHT22;5316;49.538;8.352;2023-03-11T08:44:58;3.40;99.90
10536;DHT22;5316;49.538;8.352;2023-03-11T08:47:25;3.50;99.90
10536;DHT22;5316;49.538;8.352;2023-03-11T08:49:55;3.50;99.90
10536;DHT22;5316;49.538;8.352;2023-03-11T08:52:23;3.60;99.90
10536;DHT22;5316;49.538;8.352;2023-03-11T08:54:50;3.70;1.00
10536;DHT22;5316;49.538;8.352;2023-03-11T08:57:19;3.80;1.00
10536;DHT22;5316;49.538;8.352;2023-03-11T08:59:46;3.90;45.00
10536;DHT22;5316;49.538;8.352;2023-03-11T09:02:13;3.90;1.00
10536;DHT22;5316;49.538;8.352;2023-03-11T09:04:40;3.80;1.00
10536;DHT22;5316;49.538;8.352;2023-03-11T09:07:09;3.80;1.00
10536;DHT22;5316;49.538;8.352;2023-03-11T09:09:36;3.70;1.00
10536;DHT22;5316;49.538;8.352;2023-03-11T09:12:04;3.80;99.90
10536;DHT22;5316;49.538;8.352;2023-03-11T09:14:33;3.90;99.90
10536;DHT22;5316;49.538;8.352;2023-03-11T09:17:01;3.80;99.90
10536;DHT22;5316;49.538;8.352;2023-03-11T09:19:28;4.00;1.00
10536;DHT22;5316;49.538;8.352;2023-03-11T09:21:55;4.10;99.90
10536;DHT22;5316;49.538;8.352;2023-03-11T09:24:25;4.20;99.90
10536;DHT22;5316;49.538;8.352;2023-03-11T09:26:52;4.20;1.00
10536;DHT22;5316;49.538;8.352;2023-03-11T09:29:19;4.20;1.00
10536;DHT22;5316;49.538;8.352;2023-03-11T09:31:47;4.30;1.00
10536;DHT22;5316;49.538;8.352;2023-03-11T09:34:14;4.20;99.90
10536;DHT22;5316;49.538;8.352;2023-03-11T09:36:41;4.20;99.90
10536;DHT22;5316;49.538;8.352;2023-03-11T09:39:09;4.10;99.90
10536;DHT22;5316;49.538;8.352;2023-03-11T09:41:41;4.00;99.90
10536;DHT22;5316;49.538;8.352;2023-03-11T09:44:16;3.90;99.90
10536;DHT22;5316;49.538;8.352;2023-03-11T09:47:14;4.00;99.90
10536;DHT22;5316;49.538;8.352;2023-03-11T09:50:05;4.00;99.90
10536;DHT22;5316;49.538;8.352;2023-03-11T09:52:41;4.10;1.00
10536;DHT22;5316;49.538;8.352;2023-03-11T09:55:23;4.30;99.90
10536;DHT22;5316;49.538;8.352;2023-03-11T09:57:53;4.40;99.90
10536;DHT22;5316;49.538;8.352;2023-03-11T10:00:23;4.60;1.00
10536;DHT22;5316;49.538;8.352;2023-03-11T10:02:51;4.70;99.90
10536;DHT22;5316;49.538;8.352;2023-03-11T10:05:22;4.70;99.90
10536;DHT22;5316;49.538;8.352;2023-03-11T10:07:54;4.80;99.90
10536;DHT22;5316;49.538;8.352;2023-03-11T10:10:27;4.90;99.90
10536;DHT22;5316;49.538;8.352;2023-03-11T10:13:00;4.70;99.90
10536;DHT22;5316;49.538;8.352;2023-03-11T10:15:38;4.70;99.90
10536;DHT22;5316;49.538;8.352;2023-03-11T10:21:28;4.80;99.90
10536;DHT22;5316;49.538;8.352;2023-03-11T10:24:13;4.90;99.90
10536;DHT22;5316;49.538;8.352;2023-03-11T10:26:45;4.90;99.90
10536;DHT22;5316;49.538;8.352;2023-03-11T10:29:16;5.00;99.90
10536;DHT22;5316;49.538;8.352;2023-03-11T10:31:49;5.20;99.90
10536;DHT22;5316;49.538;8.352;2023-03-11T10:34:22;5.30;99.90
10536;DHT22;5316;49.538;8.352;2023-03-11T10:36:56;5.40;99.90
10536;DHT22;5316;49.538;8.352;2023-03-11T10:39:24;5.40;99.90
10536;DHT22;5316;49.538;8.352;2023-03-11T10:41:54;5.50;99.90
10536;DHT22;5316;49.538;8.352;2023-03-11T10:44:26;5.70;98.90
10536;DHT22;5316;49.538;8.352;2023-03-11T10:46:54;5.80;20.80
10536;DHT22;5316;49.538;8.352;2023-03-11T10:49:21;5.90;1.00
10536;DHT22;5316;49.538;8.352;2023-03-11T10:51:49;6.00;1.00
10536;DHT22;5316;49.538;8.352;2023-03-11T10:54:25;6.10;1.00
10536;DHT22;5316;49.538;8.352;2023-03-11T10:56:57;6.20;1.00
10536;DHT22;5316;49.538;8.352;2023-03-11T10:59:27;5.90;1.00
10536;DHT22;5316;49.538;8.352;2023-03-11T11:01:56;5.70;22.90
10536;DHT22;5316;49.538;8.352;2023-03-11T11:04:27;5.60;15.30
10536;DHT22;5316;49.538;8.352;2023-03-11T11:06:54;5.40;67.50
10536;DHT22;5316;49.538;8.352;2023-03-11T11:09:24;5.40;57.30
10536;DHT22;5316;49.538;8.352;2023-03-11T11:12:04;5.40;30.00
10536;DHT22;5316;49.538;8.352;2023-03-11T11:14:42;5.40;58.50
10536;DHT22;5316;49.538;8.352;2023-03-11T11:17:20;5.60;40.50
10536;DHT22;5316;49.538;8.352;2023-03-11T11:19:49;5.80;1.00
10536;DHT22;5316;49.538;8.352;2023-03-11T11:22:18;5.90;1.00
10536;DHT22;5316;49.538;8.352;2023-03-11T11:24:48;6.00;1.00
10536;DHT22;5316;49.538;8.352;2023-03-11T11:27:19;6.10;1.00
10536;DHT22;5316;49.538;8.352;2023-03-11T11:29:46;6.30;1.00
10536;DHT22;5316;49.538;8.352;2023-03-11T11:32:20;6.20;1.00
10536;DHT22;5316;49.538;8.352;2023-03-11T11:34:56;5.80;1.00
10536;DHT22;5316;49.538;8.352;2023-03-11T11:37:24;5.50;7.70
10536;DHT22;5316;49.538;8.352;2023-03-11T11:40:00;5.50;46.50
10536;DHT22;5316;49.538;8.352;2023-03-11T11:42:35;5.50;23.70
10536;DHT22;5316;49.538;8.352;2023-03-11T11:45:08;5.40;42.60
10536;DHT22;5316;49.538;8.352;2023-03-11T11:47:39;5.30;98.50
10536;DHT22;5316;49.538;8.352;2023-03-11T11:50:24;5.40;99.90
10536;DHT22;5316;49.538;8.352;2023-03-11T11:52:56;5.40;20.50
10536;DHT22;5316;49.538;8.352;2023-03-11T11:55:26;5.60;41.70
10536;DHT22;5316;49.538;8.352;2023-03-11T11:57:55;5.90;1.00
10536;DHT22;5316;49.538;8.352;2023-03-11T12:00:26;6.00;1.00
10536;DHT22;5316;49.538;8.352;2023-03-11T12:03:10;6.20;1.00
10536;DHT22;5316;49.538;8.352;2023-03-11T12:05:45;6.50;1.00
10536;DHT22;5316;49.538;8.352;2023-03-11T12:08:17;6.70;1.00
10536;DHT22;5316;49.538;8.352;2023-03-11T12:10:51;6.90;1.00
10536;DHT22;5316;49.538;8.352;2023-03-11T12:13:35;6.90;1.00
10536;DHT22;5316;49.538;8.352;2023-03-11T12:16:14;7.10;1.00
10536;DHT22;5316;49.538;8.352;2023-03-11T12:18:48;7.30;1.00
10536;DHT22;5316;49.538;8.352;2023-03-11T12:21:29;7.30;1.00
10536;DHT22;5316;49.538;8.352;2023-03-11T12:24:09;7.20;1.00
10536;DHT22;5316;49.538;8.352;2023-03-11T12:26:41;7.30;1.00
10536;DHT22;5316;49.538;8.352;2023-03-11T12:29:18;7.40;1.00
10536;DHT22;5316;49.538;8.352;2023-03-11T12:31:48;7.50;1.00
10536;DHT22;5316;49.538;8.352;2023-03-11T12:34:19;7.20;1.00
10536;DHT22;5316;49.538;8.352;2023-03-11T12:36:47;7.20;1.00
10536;DHT22;5316;49.538;8.352;2023-03-11T12:39:22;6.90;1.00
10536;DHT22;5316;49.538;8.352;2023-03-11T12:42:14;6.80;1.00
10536;DHT22;5316;49.538;8.352;2023-03-11T12:44:42;6.70;1.00
10536;DHT22;5316;49.538;8.352;2023-03-11T12:47:29;6.70;1.00
10536;DHT22;5316;49.538;8.352;2023-03-11T12:52:57;6.70;1.00
10536;DHT22;5316;49.538;8.352;2023-03-11T12:55:32;6.70;1.00
10536;DHT22;5316;49.538;8.352;2023-03-11T12:58:28;6.80;1.00
10536;DHT22;5316;49.538;8.352;2023-03-11T13:01:38;7.00;1.00
10536;DHT22;5316;49.538;8.352;2023-03-11T13:04:26;7.20;1.00
10536;DHT22;5316;49.538;8.352;2023-03-11T13:10:04;7.10;1.00
10536;DHT22;5316;49.538;8.352;2023-03-11T13:12:41;7.30;1.00
10536;DHT22;5316;49.538;8.352;2023-03-11T13:15:37;7.50;1.00
10536;DHT22;5316;49.538;8.352;2023-03-11T13:18:28;7.70;1.00
10536;DHT22;5316;49.538;8.352;2023-03-11T13:20:56;8.10;1.00
10536;DHT22;5316;49.538;8.352;2023-03-11T13:23:29;8.20;1.00
10536;DHT22;5316;49.538;8.352;2023-03-11T13:26:17;8.40;1.00
10536;DHT22;5316;49.538;8.352;2023-03-11T13:28:56;8.20;1.00
10536;DHT22;5316;49.538;8.352;2023-03-11T13:31:40;7.90;1.00
10536;DHT22;5316;49.538;8.352;2023-03-11T13:34:15;7.70;1.00
10536;DHT22;5316;49.538;8.352;2023-03-11T13:36:52;7.50;1.00
10536;DHT22;5316;49.538;8.352;2023-03-11T13:39:28;7.60;1.00
10536;DHT22;5316;49.538;8.352;2023-03-11T13:41:57;7.70;1.00
10536;DHT22;5316;49.538;8.352;2023-03-11T13:44:29;7.80;1.00
10536;DHT22;5316;49.538;8.352;2023-03-11T13:47:01;7.80;1.00
10536;DHT22;5316;49.538;8.352;2023-03-11T13:49:34;7.80;1.00
10536;DHT22;5316;49.538;8.352;2023-03-11T13:52:07;7.80;1.00
10536;DHT22;5316;49.538;8.352;2023-03-11T13:54:42;7.80;1.00
10536;DHT22;5316;49.538;8.352;2023-03-11T13:57:23;8.00;1.00
10536;DHT22;5316;49.538;8.352;2023-03-11T13:59:52;7.90;1.00
10536;DHT22;5316;49.538;8.352;2023-03-11T14:02:23;7.80;1.00
10536;DHT22;5316;49.538;8.352;2023-03-11T14:04:53;7.70;1.00
10536;DHT22;5316;49.538;8.352;2023-03-11T14:07:25;7.70;1.00
10536;DHT22;5316;49.538;8.352;2023-03-11T14:10:14;7.40;1.00
10536;DHT22;5316;49.538;8.352;2023-03-11T14:12:42;7.20;1.00
10536;DHT22;5316;49.538;8.352;2023-03-11T14:15:13;7.20;1.00
10536;DHT22;5316;49.538;8.352;2023-03-11T14:17:43;7.10;1.00
10536;DHT22;5316;49.538;8.352;2023-03-11T14:20:12;7.00;1.00
10536;DHT22;5316;49.538;8.352;2023-03-11T14:26:07;7.10;1.00
10536;DHT22;5316;49.538;8.352;2023-03-11T14:28:39;7.10;1.00
10536;DHT22;5316;49.538;8.352;2023-03-11T14:31:23;7.20;1.00
10536;DHT22;5316;49.538;8.352;2023-03-11T14:33:56;7.20;1.00
10536;DHT22;5316;49.538;8.352;2023-03-11T14:36:28;7.40;1.00
10536;DHT22;5316;49.538;8.352;2023-03-11T14:38:55;7.40;1.00
10536;DHT22;5316;49.538;8.352;2023-03-11T14:41:31;7.30;1.00
10536;DHT22;5316;49.538;8.352;2023-03-11T14:44:08;7.30;1.00
10536;DHT22;5316;49.538;8.352;2023-03-11T14:46:36;7.30;1.00
10536;DHT22;5316;49.538;8.352;2023-03-11T14:49:06;7.40;1.00
10536;DHT22;5316;49.538;8.352;2023-03-11T14:51:34;7.40;1.00
10536;DHT22;5316;49.538;8.352;2023-03-11T14:54:06;7.50;1.00
10536;DHT22;5316;49.538;8.352;2023-03-11T14:56:37;7.40;1.00
10536;DHT22;5316;49.538;8.352;2023-03-11T14:59:09;7.30;1.00
10536;DHT22;5316;49.538;8.352;2023-03-11T15:01:39;7.20;1.00
10536;DHT22;5316;49.538;8.352;2023-03-11T15:04:11;7.10;1.00
10536;DHT22;5316;49.538;8.352;2023-03-11T15:06:41;7.00;1.00
10536;DHT22;5316;49.538;8.352;2023-03-11T15:09:11;7.00;1.00
10536;DHT22;5316;49.538;8.352;2023-03-11T15:11:46;6.90;1.00
10536;DHT22;5316;49.538;8.352;2023-03-11T15:14:20;7.00;1.00
10536;DHT22;5316;49.538;8.352;2023-03-11T15:16:47;7.10;1.00
10536;DHT22;5316;49.538;8.352;2023-03-11T15:19:30;7.00;1.00
10536;DHT22;5316;49.538;8.352;2023-03-11T15:22:01;7.10;1.00
10536;DHT22;5316;49.538;8.352;2023-03-11T15:24:30;7.10;1.00
10536;DHT22;5316;49.538;8.352;2023-03-11T15:27:01;7.20;1.00
10536;DHT22;5316;49.538;8.352;2023-03-11T15:29:30;7.40;1.00
10536;DHT22;5316;49.538;8.352;2023-03-11T15:31:57;7.50;1.00
10536;DHT22;5316;49.538;8.352;2023-03-11T15:34:29;7.60;1.00
10536;DHT22;5316;49.538;8.352;2023-03-11T15:37:02;7.60;1.00
10536;DHT22;5316;49.538;8.352;2023-03-11T15:39:43;7.80;1.00
10536;DHT22;5316;49.538;8.352;2023-03-11T15:42:14;7.90;1.00
10536;DHT22;5316;49.538;8.352;2023-03-11T15:44:48;7.80;1.00
10536;DHT22;5316;49.538;8.352;2023-03-11T15:47:21;7.70;1.00
10536;DHT22;5316;49.538;8.352;2023-03-11T15:49:50;7.60;1.00
10536;DHT22;5316;49.538;8.352;2023-03-11T15:52:17;7.50;1.00
10536;DHT22;5316;49.538;8.352;2023-03-11T15:54:45;7.40;1.00
10536;DHT22;5316;49.538;8.352;2023-03-11T15:57:19;7.20;1.00
10536;DHT22;5316;49.538;8.352;2023-03-11T15:59:47;7.00;1.00
10536;DHT22;5316;49.538;8.352;2023-03-11T16:02:20;6.70;1.00
10536;DHT22;5316;49.538;8.352;2023-03-11T16:04:49;6.70;1.00
10536;DHT22;5316;49.538;8.352;2023-03-11T16:07:16;6.60;1.00
10536;DHT22;5316;49.538;8.352;2023-03-11T16:09:44;6.70;1.00
10536;DHT22;5316;49.538;8.352;2023-03-11T16:12:15;6.80;1.00
10536;DHT22;5316;49.538;8.352;2023-03-11T16:14:42;7.00;1.00
10536;DHT22;5316;49.538;8.352;2023-03-11T16:17:09;7.10;1.00
10536;DHT22;5316;49.538;8.352;2023-03-11T16:19:39;7.30;1.00
10536;DHT22;5316;49.538;8.352;2023-03-11T16:22:14;7.60;1.00
10536;DHT22;5316;49.538;8.352;2023-03-11T16:24:42;7.90;1.00
10536;DHT22;5316;49.538;8.352;2023-03-11T16:27:25;8.40;1.00
10536;DHT22;5316;49.538;8.352;2023-03-11T16:29:51;9.00;1.00
10536;DHT22;5316;49.538;8.352;2023-03-11T16:32:19;9.30;1.00
10536;DHT22;5316;49.538;8.352;2023-03-11T16:34:46;9.70;1.00
10536;DHT22;5316;49.538;8.352;2023-03-11T16:37:16;9.90;1.00
10536;DHT22;5316;49.538;8.352;2023-03-11T16:39:45;9.80;1.00
10536;DHT22;5316;49.538;8.352;2023-03-11T16:42:12;9.60;1.00
10536;DHT22;5316;49.538;8.352;2023-03-11T16:44:39;9.10;1.00
10536;DHT22;5316;49.538;8.352;2023-03-11T16:47:06;8.70;1.00
10536;DHT22;5316;49.538;8.352;2023-03-11T16:49:33;8.30;1.00
10536;DHT22;5316;49.538;8.352;2023-03-11T16:52:00;7.90;1.00
10536;DHT22;5316;49.538;8.352;2023-03-11T16:54:28;7.60;1.00
10536;DHT22;5316;49.538;8.352;2023-03-11T16:56:55;7.40;1.00
10536;DHT22;5316;49.538;8.352;2023-03-11T16:59:22;7.10;1.00
10536;DHT22;5316;49.538;8.352;2023-03-11T17:01:49;6.90;1.00
10536;DHT22;5316;49.538;8.352;2023-03-11T17:04:16;6.60;1.00
10536;DHT22;5316;49.538;8.352;2023-03-11T17:06:44;6.40;1.00
10536;DHT22;5316;49.538;8.352;2023-03-11T17:09:10;6.30;17.80
10536;DHT22;5316;49.538;8.352;2023-03-11T17:11:39;6.10;31.50
10536;DHT22;5316;49.538;8.352;2023-03-11T17:14:06;6.00;94.70
10536;DHT22;5316;49.538;8.352;2023-03-11T17:16:33;5.80;82.60
10536;DHT22;5316;49.538;8.352;2023-03-11T17:19:00;5.70;99.90
10536;DHT22;5316;49.538;8.352;2023-03-11T17:21:27;5.60;99.90
10536;DHT22;5316;49.538;8.352;2023-03-11T17:23:54;5.50;99.90
10536;DHT22;5316;49.538;8.352;2023-03-11T17:26:24;5.40;99.90
10536;DHT22;5316;49.538;8.352;2023-03-11T17:28:53;5.30;99.90
10536;DHT22;5316;49.538;8.352;2023-03-11T17:31:20;5.30;99.90
10536;DHT22;5316;49.538;8.352;2023-03-11T17:33:47;5.20;99.90
10536;DHT22;5316;49.538;8.352;2023-03-11T17:36:16;5.10;99.90
10536;DHT22;5316;49.538;8.352;2023-03-11T17:38:44;5.10;99.90
10536;DHT22;5316;49.538;8.352;2023-03-11T17:41:13;5.00;99.90
10536;DHT22;5316;49.538;8.352;2023-03-11T17:43:43;4.90;99.90
10536;DHT22;5316;49.538;8.352;2023-03-11T17:46:13;4.80;1.00
10536;DHT22;5316;49.538;8.352;2023-03-11T17:48:40;4.80;1.00
10536;DHT22;5316;49.538;8.352;2023-03-11T17:51:09;4.70;1.00
10536;DHT22;5316;49.538;8.352;2023-03-11T17:53:38;4.70;1.00
10536;DHT22;5316;49.538;8.352;2023-03-11T17:56:06;4.60;1.00
10536;DHT22;5316;49.538;8.352;2023-03-11T17:58:34;4.60;1.00
10536;DHT22;5316;49.538;8.352;2023-03-11T18:01:03;4.50;1.00
10536;DHT22;5316;49.538;8.352;2023-03-11T18:03:32;4.40;1.00
10536;DHT22;5316;49.538;8.352;2023-03-11T18:06:02;4.40;1.00
10536;DHT22;5316;49.538;8.352;2023-03-11T18:08:30;4.30;1.00
10536;DHT22;5316;49.538;8.352;2023-03-11T18:11:02;4.30;1.00
10536;DHT22;5316;49.538;8.352;2023-03-11T18:13:30;4.20;1.00
10536;DHT22;5316;49.538;8.352;2023-03-11T18:15:58;4.20;1.00
10536;DHT22;5316;49.538;8.352;2023-03-11T18:18:29;4.20;24.20
10536;DHT22;5316;49.538;8.352;2023-03-11T18:21:01;4.10;36.60
10536;DHT22;5316;49.538;8.352;2023-03-11T18:23:28;4.00;91.60
10536;DHT22;5316;49.538;8.352;2023-03-11T18:25:57;4.00;99.90
10536;DHT22;5316;49.538;8.352;2023-03-11T18:28:25;4.00;96.50
10536;DHT22;5316;49.538;8.352;2023-03-11T18:30:54;3.90;57.00
10536;DHT22;5316;49.538;8.352;2023-03-11T18:33:23;3.90;77.90
10536;DHT22;5316;49.538;8.352;2023-03-11T18:35:52;3.90;67.10
10536;DHT22;5316;49.538;8.352;2023-03-11T18:38:20;3.80;17.60
10536;DHT22;5316;49.538;8.352;2023-03-11T18:40:56;3.80;1.00
10536;DHT22;5316;49.538;8.352;2023-03-11T18:43:25;3.80;1.00
10536;DHT22;5316;49.538;8.352;2023-03-11T18:45:51;3.80;1.00
10536;DHT22;5316;49.538;8.352;2023-03-11T18:48:18;3.80;1.00
10536;DHT22;5316;49.538;8.352;2023-03-11T18:50:50;3.80;2.80
10536;DHT22;5316;49.538;8.352;2023-03-11T18:53:22;3.70;19.60
10536;DHT22;5316;49.538;8.352;2023-03-11T18:55:52;3.70;49.40
10536;DHT22;5316;49.538;8.352;2023-03-11T18:58:23;3.60;99.90
10536;DHT22;5316;49.538;8.352;2023-03-11T19:00:51;3.60;99.90
10536;DHT22;5316;49.538;8.352;2023-03-11T19:03:19;3.60;99.90
10536;DHT22;5316;49.538;8.352;2023-03-11T19:05:48;3.60;99.90
10536;DHT22;5316;49.538;8.352;2023-03-11T19:08:21;3.60;99.90
10536;DHT22;5316;49.538;8.352;2023-03-11T19:10:49;3.50;99.90
10536;DHT22;5316;49.538;8.352;2023-03-11T19:13:16;3.50;99.90
10536;DHT22;5316;49.538;8.352;2023-03-11T19:15:45;3.50;99.90
10536;DHT22;5316;49.538;8.352;2023-03-11T19:18:13;3.40;99.90
10536;DHT22;5316;49.538;8.352;2023-03-11T19:20:40;3.40;99.90
10536;DHT22;5316;49.538;8.352;2023-03-11T19:23:09;3.40;1.00
10536;DHT22;5316;49.538;8.352;2023-03-11T19:28:22;3.40;1.00
10536;DHT22;5316;49.538;8.352;2023-03-11T19:30:49;3.40;1.00
10536;DHT22;5316;49.538;8.352;2023-03-11T19:33:55;3.30;1.00
10536;DHT22;5316;49.538;8.352;2023-03-11T19:36:23;3.40;1.00
10536;DHT22;5316;49.538;8.352;2023-03-11T19:38:52;3.30;1.00
10536;DHT22;5316;49.538;8.352;2023-03-11T19:41:20;3.40;1.00
10536;DHT22;5316;49.538;8.352;2023-03-11T19:46:24;3.30;48.70
10536;DHT22;5316;49.538;8.352;2023-03-11T19:48:51;3.40;99.90
10536;DHT22;5316;49.538;8.352;2023-03-11T19:51:21;3.40;93.50
10536;DHT22;5316;49.538;8.352;2023-03-11T19:53:47;3.30;71.30
10536;DHT22;5316;49.538;8.352;2023-03-11T19:56:16;3.30;96.00
10536;DHT22;5316;49.538;8.352;2023-03-11T19:58:43;3.30;93.40
10536;DHT22;5316;49.538;8.352;2023-03-11T20:01:17;3.30;47.60
10536;DHT22;5316;49.538;8.352;2023-03-11T20:03:46;3.30;21.20
10536;DHT22;5316;49.538;8.352;2023-03-11T20:06:13;3.20;23.20
10536;DHT22;5316;49.538;8.352;2023-03-11T20:08:42;3.20;53.30
10536;DHT22;5316;49.538;8.352;2023-03-11T20:11:09;3.20;99.90
10536;DHT22;5316;49.538;8.352;2023-03-11T20:13:37;3.20;99.90
10536;DHT22;5316;49.538;8.352;2023-03-11T20:16:09;3.20;99.90
10536;DHT22;5316;49.538;8.352;2023-03-11T20:18:36;3.20;99.90
10536;DHT22;5316;49.538;8.352;2023-03-11T20:21:09;3.20;99.90
10536;DHT22;5316;49.538;8.352;2023-03-11T20:23:39;3.00;1.00
10536;DHT22;5316;49.538;8.352;2023-03-11T20:26:35;2.90;99.90
10536;DHT22;5316;49.538;8.352;2023-03-11T20:29:04;2.60;96.90
10536;DHT22;5316;49.538;8.352;2023-03-11T20:31:33;2.60;1.00
10536;DHT22;5316;49.538;8.352;2023-03-11T20:34:07;2.50;99.90
10536;DHT22;5316;49.538;8.352;2023-03-11T20:36:36;2.40;99.90
10536;DHT22;5316;49.538;8.352;2023-03-11T20:39:04;2.30;1.00
10536;DHT22;5316;49.538;8.352;2023-03-11T20:41:34;2.30;96.10
10536;DHT22;5316;49.538;8.352;2023-03-11T20:44:06;2.20;99.90
10536;DHT22;5316;49.538;8.352;2023-03-11T20:46:33;2.20;99.90
10536;DHT22;5316;49.538;8.352;2023-03-11T20:49:20;2.20;1.00
10536;DHT22;5316;49.538;8.352;2023-03-11T20:51:48;2.20;1.00
10536;DHT22;5316;49.538;8.352;2023-03-11T20:54:16;2.20;6.80
10536;DHT22;5316;49.538;8.352;2023-03-11T20:56:43;2.10;99.90
10536;DHT22;5316;49.538;8.352;2023-03-11T20:59:25;2.00;99.90
10536;DHT22;5316;49.538;8.352;2023-03-11T21:01:55;2.00;1.00
10536;DHT22;5316;49.538;8.352;2023-03-11T21:04:25;1.90;1.00
10536;DHT22;5316;49.538;8.352;2023-03-11T21:10:04;1.90;47.70
10536;DHT22;5316;49.538;8.352;2023-03-11T21:12:31;1.90;1.00
10536;DHT22;5316;49.538;8.352;2023-03-11T21:14:58;1.90;8.80
10536;DHT22;5316;49.538;8.352;2023-03-11T21:18:02;1.80;1.00
10536;DHT22;5316;49.538;8.352;2023-03-11T21:20:30;1.80;3.00
10536;DHT22;5316;49.538;8.352;2023-03-11T21:23:01;1.80;99.90
10536;DHT22;5316;49.538;8.352;2023-03-11T21:25:32;1.70;99.90
10536;DHT22;5316;49.538;8.352;2023-03-11T21:27:59;1.80;99.90
10536;DHT22;5316;49.538;8.352;2023-03-11T21:30:30;1.80;99.90
10536;DHT22;5316;49.538;8.352;2023-03-11T21:33:03;1.80;99.90
10536;DHT22;5316;49.538;8.352;2023-03-11T21:38:05;1.70;1.00
10536;DHT22;5316;49.538;8.352;2023-03-11T21:40:35;1.70;1.00
10536;DHT22;5316;49.538;8.352;2023-03-11T21:43:02;1.70;1.00
10536;DHT22;5316;49.538;8.352;2023-03-11T21:45:36;1.70;1.00
10536;DHT22;5316;49.538;8.352;2023-03-11T21:48:05;1.70;1.00
10536;DHT22;5316;49.538;8.352;2023-03-11T21:50:34;1.70;1.00
10536;DHT22;5316;49.538;8.352;2023-03-11T21:53:01;1.70;1.00
10536;DHT22;5316;49.538;8.352;2023-03-11T21:55:28;1.60;18.40
10536;DHT22;5316;49.538;8.352;2023-03-11T21:57:59;1.60;96.30
10536;DHT22;5316;49.538;8.352;2023-03-11T22:00:28;1.50;99.90
10536;DHT22;5316;49.538;8.352;2023-03-11T22:02:55;1.50;99.90
10536;DHT22;5316;49.538;8.352;2023-03-11T22:05:23;1.40;99.90
10536;DHT22;5316;49.538;8.352;2023-03-11T22:07:51;1.40;99.90
10536;DHT22;5316;49.538;8.352;2023-03-11T22:10:20;1.40;99.90
10536;DHT22;5316;49.538;8.352;2023-03-11T22:12:53;1.30;99.90
10536;DHT22;5316;49.538;8.352;2023-03-11T22:15:21;1.30;99.90